sensor_id;sensor_type;location;lat;lon;timestamp;pressure;altitude;pressure_sealevel;temperature;humidity
55317;BME280;41178;48.956;8.130;2023-02-21T00:05:18;100199.91;;;9.00;47.96
55317;BME280;41178;48.956;8.130;2023-02-21T00:10:39;100167.63;;;8.26;48.91
55317;BME280;41178;48.956;8.130;2023-02-21T00:15:59;100183.41;;;9.05;47.55
55317;BME280;41178;48.956;8.130;2023-02-21T00:21:20;100130.19;;;7.94;49.12
55317;BME280;41178;48.956;8.130;2023-02-21T00:26:40;100168.91;;;8.99;48.54
55317;BME280;41178;48.956;8.130;2023-02-21T00:32:01;100180.38;;;8.92;48.03
55317;BME280;41178;48.956;8.130;2023-02-21T00:37:21;100181.47;;;8.64;48.10
55317;BME280;41178;48.956;8.130;2023-02-21T00:42:41;100149.63;;;8.20;49.31
55317;BME280;41178;48.956;8.130;2023-02-21T00:48:01;100050.53;;;7.30;50.36
55317;BME280;41178;48.956;8.130;2023-02-21T00:53:24;100145.00;;;7.96;49.13
55317;BME280;41178;48.956;8.130;2023-02-21T00:58:44;100157.97;;;7.91;49.02
55317;BME280;41178;48.956;8.130;2023-02-21T01:04:04;100151.13;;;7.88;49.48
55317;BME280;41178;48.956;8.130;2023-02-21T01:09:24;100118.81;;;9.51;46.44
55317;BME280;41178;48.956;8.130;2023-02-21T01:14:45;100106.88;;;7.78;48.85
55317;BME280;41178;48.956;8.130;2023-02-21T01:20:05;100117.03;;;7.74;49.23
55317;BME280;41178;48.956;8.130;2023-02-21T01:25:26;100170.09;;;8.54;47.57
55317;BME280;41178;48.956;8.130;2023-02-21T01:30:46;100022.28;;;6.75;50.02
55317;BME280;41178;48.956;8.130;2023-02-21T01:36:07;100025.44;;;6.70;51.62
55317;BME280;41178;48.956;8.130;2023-02-21T01:41:28;99922.22;;;5.10;54.68
55317;BME280;41178;48.956;8.130;2023-02-21T01:46:48;99923.69;;;4.75;55.90
55317;BME280;41178;48.956;8.130;2023-02-21T01:52:08;99975.22;;;4.73;55.73
55317;BME280;41178;48.956;8.130;2023-02-21T01:57:29;100093.81;;;6.60;52.20
55317;BME280;41178;48.956;8.130;2023-02-21T02:03:02;100047.06;;;5.56;53.35
55317;BME280;41178;48.956;8.130;2023-02-21T02:08:31;99973.91;;;4.97;54.97
55317;BME280;41178;48.956;8.130;2023-02-21T02:25:17;100041.53;;;5.77;53.40
55317;BME280;41178;48.956;8.130;2023-02-21T02:30:42;100020.66;;;5.64;54.69
55317;BME280;41178;48.956;8.130;2023-02-21T02:35:55;100066.91;;;6.63;52.03
55317;BME280;41178;48.956;8.130;2023-02-21T02:41:06;100087.63;;;6.87;50.79
55317;BME280;41178;48.956;8.130;2023-02-21T02:46:22;100056.38;;;7.94;49.04
55317;BME280;41178;48.956;8.130;2023-02-21T02:51:25;100115.59;;;7.09;50.50
55317;BME280;41178;48.956;8.130;2023-02-21T02:56:28;100107.13;;;7.58;49.32
55317;BME280;41178;48.956;8.130;2023-02-21T03:17:25;100140.91;;;6.95;50.38
55317;BME280;41178;48.956;8.130;2023-02-21T03:22:30;100093.97;;;5.75;52.26
55317;BME280;41178;48.956;8.130;2023-02-21T03:27:33;100103.19;;;7.18;50.97
55317;BME280;41178;48.956;8.130;2023-02-21T03:32:44;100106.13;;;7.59;49.35
55317;BME280;41178;48.956;8.130;2023-02-21T03:37:49;100123.09;;;6.32;50.76
55317;BME280;41178;48.956;8.130;2023-02-21T03:42:54;100001.69;;;4.92;54.00
55317;BME280;41178;48.956;8.130;2023-02-21T03:47:56;100033.63;;;5.10;55.20
55317;BME280;41178;48.956;8.130;2023-02-21T03:52:58;100026.69;;;4.70;56.04
55317;BME280;41178;48.956;8.130;2023-02-21T03:58:00;100078.16;;;5.83;53.23
55317;BME280;41178;48.956;8.130;2023-02-21T04:03:02;100089.63;;;6.12;52.35
55317;BME280;41178;48.956;8.130;2023-02-21T04:08:04;100082.53;;;5.55;53.43
55317;BME280;41178;48.956;8.130;2023-02-21T04:13:06;100074.22;;;5.87;53.27
55317;BME280;41178;48.956;8.130;2023-02-21T04:18:08;100074.66;;;5.16;54.07
55317;BME280;41178;48.956;8.130;2023-02-21T04:23:10;100078.41;;;5.33;53.47
55317;BME280;41178;48.956;8.130;2023-02-21T04:28:11;100076.66;;;5.71;53.45
55317;BME280;41178;48.956;8.130;2023-02-21T04:33:13;100091.44;;;5.74;52.70
55317;BME280;41178;48.956;8.130;2023-02-21T04:38:15;100082.53;;;6.30;51.67
55317;BME280;41178;48.956;8.130;2023-02-21T04:43:17;100088.16;;;5.42;52.48
55317;BME280;41178;48.956;8.130;2023-02-21T04:48:21;100082.75;;;5.91;52.65
55317;BME280;41178;48.956;8.130;2023-02-21T04:53:23;100089.97;;;5.61;52.87
55317;BME280;41178;48.956;8.130;2023-02-21T04:58:25;100096.25;;;6.25;51.45
55317;BME280;41178;48.956;8.130;2023-02-21T05:03:31;100081.25;;;5.12;53.15
55317;BME280;41178;48.956;8.130;2023-02-21T05:08:35;100042.84;;;4.57;54.56
55317;BME280;41178;48.956;8.130;2023-02-21T05:13:37;100050.00;;;4.76;54.16
55317;BME280;41178;48.956;8.130;2023-02-21T05:18:43;100055.03;;;5.66;52.80
55317;BME280;41178;48.956;8.130;2023-02-21T05:23:45;100054.97;;;5.19;53.31
55317;BME280;41178;48.956;8.130;2023-02-21T05:28:56;100057.91;;;5.16;52.91
55317;BME280;41178;48.956;8.130;2023-02-21T05:33:58;100046.63;;;6.44;50.62
55317;BME280;41178;48.956;8.130;2023-02-21T05:39:00;100061.84;;;5.02;52.62
55317;BME280;41178;48.956;8.130;2023-02-21T05:44:02;100046.16;;;4.30;53.58
55317;BME280;41178;48.956;8.130;2023-02-21T05:49:05;100091.06;;;6.06;51.55
55317;BME280;41178;48.956;8.130;2023-02-21T05:54:10;100123.91;;;5.67;51.10
55317;BME280;41178;48.956;8.130;2023-02-21T05:59:13;100067.28;;;4.51;54.04
55317;BME280;41178;48.956;8.130;2023-02-21T06:04:16;100096.28;;;5.98;51.68
55317;BME280;41178;48.956;8.130;2023-02-21T06:09:18;100077.47;;;4.46;53.68
55317;BME280;41178;48.956;8.130;2023-02-21T06:14:20;100086.41;;;4.65;53.76
55317;BME280;41178;48.956;8.130;2023-02-21T06:19:22;100077.88;;;4.71;54.40
55317;BME280;41178;48.956;8.130;2023-02-21T06:24:24;100081.16;;;5.61;52.34
55317;BME280;41178;48.956;8.130;2023-02-21T06:29:25;100105.34;;;5.48;52.37
55317;BME280;41178;48.956;8.130;2023-02-21T06:34:27;100124.06;;;5.66;51.25
55317;BME280;41178;48.956;8.130;2023-02-21T06:39:29;100052.38;;;3.69;55.26
55317;BME280;41178;48.956;8.130;2023-02-21T06:44:31;100084.00;;;4.52;54.04
55317;BME280;41178;48.956;8.130;2023-02-21T06:49:34;100105.25;;;5.10;52.72
55317;BME280;41178;48.956;8.130;2023-02-21T06:54:36;100095.84;;;4.38;53.91
55317;BME280;41178;48.956;8.130;2023-02-21T06:59:38;100120.59;;;4.77;53.17
55317;BME280;41178;48.956;8.130;2023-02-21T07:04:41;100078.56;;;4.03;55.28
55317;BME280;41178;48.956;8.130;2023-02-21T07:09:43;100063.34;;;3.64;55.62
55317;BME280;41178;48.956;8.130;2023-02-21T07:14:45;100109.41;;;4.64;53.70
55317;BME280;41178;48.956;8.130;2023-02-21T07:19:47;100095.75;;;5.27;52.86
55317;BME280;41178;48.956;8.130;2023-02-21T07:24:48;100102.41;;;5.31;52.81
55317;BME280;41178;48.956;8.130;2023-02-21T07:29:50;100101.63;;;4.92;53.33
55317;BME280;41178;48.956;8.130;2023-02-21T07:34:52;100122.31;;;4.98;53.04
55317;BME280;41178;48.956;8.130;2023-02-21T07:39:54;100114.31;;;5.18;53.83
55317;BME280;41178;48.956;8.130;2023-02-21T07:44:56;100106.81;;;5.80;52.38
55317;BME280;41178;48.956;8.130;2023-02-21T07:49:58;100110.06;;;6.11;51.51
55317;BME280;41178;48.956;8.130;2023-02-21T07:55:00;100153.00;;;5.59;52.48
55317;BME280;41178;48.956;8.130;2023-02-21T08:00:02;100131.75;;;5.30;53.64
55317;BME280;41178;48.956;8.130;2023-02-21T08:05:06;100112.34;;;5.59;53.55
55317;BME280;41178;48.956;8.130;2023-02-21T08:10:09;100114.25;;;5.76;53.13
55317;BME280;41178;48.956;8.130;2023-02-21T08:15:11;100148.22;;;5.73;52.39
55317;BME280;41178;48.956;8.130;2023-02-21T08:20:12;100141.78;;;5.65;53.35
55317;BME280;41178;48.956;8.130;2023-02-21T08:25:15;100139.25;;;5.74;52.85
55317;BME280;41178;48.956;8.130;2023-02-21T08:30:17;100115.75;;;6.44;51.95
55317;BME280;41178;48.956;8.130;2023-02-21T08:35:19;100163.72;;;5.38;53.22
55317;BME280;41178;48.956;8.130;2023-02-21T08:40:22;100137.50;;;4.86;53.37
55317;BME280;41178;48.956;8.130;2023-02-21T08:45:26;100141.94;;;6.39;52.62
55317;BME280;41178;48.956;8.130;2023-02-21T08:50:28;100121.34;;;6.69;52.30
55317;BME280;41178;48.956;8.130;2023-02-21T08:55:30;100100.03;;;6.78;52.38
55317;BME280;41178;48.956;8.130;2023-02-21T09:00:31;100129.25;;;6.96;51.65
55317;BME280;41178;48.956;8.130;2023-02-21T09:05:33;100095.25;;;7.52;50.68
55317;BME280;41178;48.956;8.130;2023-02-21T09:10:35;100065.03;;;8.47;48.87
55317;BME280;41178;48.956;8.130;2023-02-21T09:15:37;100122.56;;;7.81;49.49
55317;BME280;41178;48.956;8.130;2023-02-21T09:20:39;100099.25;;;8.09;49.36
55317;BME280;41178;48.956;8.130;2023-02-21T09:25:42;100087.25;;;8.80;48.26
55317;BME280;41178;48.956;8.130;2023-02-21T09:30:44;100104.69;;;8.42;48.69
55317;BME280;41178;48.956;8.130;2023-02-21T09:35:46;100143.84;;;7.99;49.02
55317;BME280;41178;48.956;8.130;2023-02-21T09:40:50;100122.97;;;8.28;49.50
55317;BME280;41178;48.956;8.130;2023-02-21T09:45:58;100155.53;;;8.06;50.03
55317;BME280;41178;48.956;8.130;2023-02-21T09:51:03;100166.97;;;7.90;50.22
55317;BME280;41178;48.956;8.130;2023-02-21T09:56:27;100167.50;;;7.76;50.54
55317;BME280;41178;48.956;8.130;2023-02-21T10:06:59;100093.59;;;8.63;49.06
55317;BME280;41178;48.956;8.130;2023-02-21T10:17:32;100065.41;;;9.51;47.63
55317;BME280;41178;48.956;8.130;2023-02-21T10:22:39;100071.00;;;9.81;47.46
55317;BME280;41178;48.956;8.130;2023-02-21T10:27:42;100080.28;;;10.09;47.30
55317;BME280;41178;48.956;8.130;2023-02-21T10:32:44;100071.88;;;9.56;47.48
55317;BME280;41178;48.956;8.130;2023-02-21T10:37:49;100052.13;;;10.22;46.44
55317;BME280;41178;48.956;8.130;2023-02-21T10:43:21;100075.50;;;10.82;45.82
55317;BME280;41178;48.956;8.130;2023-02-21T10:48:27;100055.94;;;10.27;46.27
55317;BME280;41178;48.956;8.130;2023-02-21T10:53:42;100050.38;;;10.60;45.95
55317;BME280;41178;48.956;8.130;2023-02-21T11:11:38;100053.81;;;9.67;47.53
55317;BME280;41178;48.956;8.130;2023-02-21T11:16:40;100055.34;;;10.09;47.47
55317;BME280;41178;48.956;8.130;2023-02-21T11:21:42;100056.84;;;9.64;46.65
55317;BME280;41178;48.956;8.130;2023-02-21T11:26:51;100039.31;;;10.40;46.12
55317;BME280;41178;48.956;8.130;2023-02-21T11:31:54;100041.13;;;10.48;46.54
55317;BME280;41178;48.956;8.130;2023-02-21T11:37:02;100034.38;;;9.42;47.00
55317;BME280;41178;48.956;8.130;2023-02-21T11:42:23;100030.75;;;10.45;46.46
55317;BME280;41178;48.956;8.130;2023-02-21T11:47:31;100017.34;;;10.76;44.88
55317;BME280;41178;48.956;8.130;2023-02-21T11:57:52;100015.06;;;10.88;44.34
55317;BME280;41178;48.956;8.130;2023-02-21T12:34:13;99940.28;;;11.61;42.80
55317;BME280;41178;48.956;8.130;2023-02-21T12:50:27;99904.47;;;12.70;40.84
55317;BME280;41178;48.956;8.130;2023-02-21T12:55:33;99870.91;;;12.87;40.28
55317;BME280;41178;48.956;8.130;2023-02-21T13:00:42;99848.59;;;12.87;39.24
55317;BME280;41178;48.956;8.130;2023-02-21T13:05:54;99850.75;;;12.70;38.97
55317;BME280;41178;48.956;8.130;2023-02-21T13:11:14;99815.41;;;13.63;40.00
55317;BME280;41178;48.956;8.130;2023-02-21T13:16:17;99824.19;;;14.25;38.77
55317;BME280;41178;48.956;8.130;2023-02-21T13:32:05;99776.53;;;13.59;40.16
55317;BME280;41178;48.956;8.130;2023-02-21T13:37:21;99739.22;;;13.22;39.97
55317;BME280;41178;48.956;8.130;2023-02-21T13:42:25;99757.34;;;14.02;40.31
55317;BME280;41178;48.956;8.130;2023-02-21T13:53:13;99714.97;;;12.47;39.90
55317;BME280;41178;48.956;8.130;2023-02-21T14:08:56;99731.34;;;13.14;38.67
55317;BME280;41178;48.956;8.130;2023-02-21T14:14:04;99690.00;;;13.08;39.45
55317;BME280;41178;48.956;8.130;2023-02-21T14:19:35;99648.09;;;13.81;38.80
55317;BME280;41178;48.956;8.130;2023-02-21T14:24:41;99691.31;;;13.73;37.73
55317;BME280;41178;48.956;8.130;2023-02-21T14:40:33;99623.25;;;13.19;38.78
55317;BME280;41178;48.956;8.130;2023-02-21T15:06:43;99603.28;;;14.27;37.61
55317;BME280;41178;48.956;8.130;2023-02-21T15:11:47;99612.47;;;13.99;37.42
55317;BME280;41178;48.956;8.130;2023-02-21T15:16:54;99574.44;;;14.79;36.68
55317;BME280;41178;48.956;8.130;2023-02-21T15:22:25;99579.44;;;15.32;36.38
55317;BME280;41178;48.956;8.130;2023-02-21T15:27:27;99560.03;;;14.99;37.42
55317;BME280;41178;48.956;8.130;2023-02-21T15:32:28;99530.38;;;13.83;37.55
55317;BME280;41178;48.956;8.130;2023-02-21T15:37:32;99524.56;;;14.38;36.35
55317;BME280;41178;48.956;8.130;2023-02-21T15:42:39;99551.34;;;14.65;36.49
55317;BME280;41178;48.956;8.130;2023-02-21T15:47:41;99529.16;;;14.31;36.46
55317;BME280;41178;48.956;8.130;2023-02-21T15:52:46;99532.19;;;15.05;35.87
55317;BME280;41178;48.956;8.130;2023-02-21T16:03:34;99503.03;;;14.38;36.08
55317;BME280;41178;48.956;8.130;2023-02-21T16:09:06;99479.09;;;13.71;38.73
55317;BME280;41178;48.956;8.130;2023-02-21T16:14:22;99492.81;;;14.15;37.52
55317;BME280;41178;48.956;8.130;2023-02-21T16:19:30;99475.06;;;14.00;38.17
55317;BME280;41178;48.956;8.130;2023-02-21T16:24:32;99486.47;;;13.96;38.90
55317;BME280;41178;48.956;8.130;2023-02-21T16:29:34;99471.56;;;13.93;38.39
55317;BME280;41178;48.956;8.130;2023-02-21T16:34:36;99460.44;;;13.83;38.51
55317;BME280;41178;48.956;8.130;2023-02-21T16:39:38;99470.16;;;13.84;38.58
55317;BME280;41178;48.956;8.130;2023-02-21T16:44:44;99454.88;;;13.78;38.30
55317;BME280;41178;48.956;8.130;2023-02-21T16:49:46;99455.78;;;13.65;38.13
55317;BME280;41178;48.956;8.130;2023-02-21T16:54:48;99450.44;;;13.52;38.33
55317;BME280;41178;48.956;8.130;2023-02-21T16:59:49;99480.88;;;13.97;36.90
55317;BME280;41178;48.956;8.130;2023-02-21T17:04:51;99463.88;;;13.52;37.24
55317;BME280;41178;48.956;8.130;2023-02-21T17:09:53;99476.22;;;13.73;37.37
55317;BME280;41178;48.956;8.130;2023-02-21T17:14:54;99470.91;;;13.46;37.11
55317;BME280;41178;48.956;8.130;2023-02-21T17:19:56;99499.34;;;13.87;37.56
55317;BME280;41178;48.956;8.130;2023-02-21T17:24:58;99510.03;;;14.07;36.72
55317;BME280;41178;48.956;8.130;2023-02-21T17:30:00;99480.97;;;13.71;36.94
55317;BME280;41178;48.956;8.130;2023-02-21T17:35:02;99462.94;;;13.06;37.96
55317;BME280;41178;48.956;8.130;2023-02-21T17:40:04;99489.09;;;13.57;37.11
55317;BME280;41178;48.956;8.130;2023-02-21T17:45:06;99476.75;;;13.36;37.57
55317;BME280;41178;48.956;8.130;2023-02-21T17:50:08;99496.59;;;14.07;37.15
55317;BME280;41178;48.956;8.130;2023-02-21T17:55:19;99460.06;;;12.74;38.99
55317;BME280;41178;48.956;8.130;2023-02-21T18:00:25;99464.13;;;13.17;38.17
55317;BME280;41178;48.956;8.130;2023-02-21T18:05:27;99453.13;;;12.05;39.43
55317;BME280;41178;48.956;8.130;2023-02-21T18:10:30;99455.41;;;11.59;40.10
55317;BME280;41178;48.956;8.130;2023-02-21T18:15:32;99460.97;;;11.23;40.88
55317;BME280;41178;48.956;8.130;2023-02-21T18:20:34;99473.06;;;11.54;40.34
55317;BME280;41178;48.956;8.130;2023-02-21T18:25:36;99458.22;;;11.16;40.60
55317;BME280;41178;48.956;8.130;2023-02-21T18:30:38;99485.13;;;11.65;40.04
55317;BME280;41178;48.956;8.130;2023-02-21T18:35:39;99449.81;;;10.69;41.21
55317;BME280;41178;48.956;8.130;2023-02-21T18:40:41;99457.56;;;10.36;41.66
55317;BME280;41178;48.956;8.130;2023-02-21T18:45:48;99470.09;;;10.57;41.80
55317;BME280;41178;48.956;8.130;2023-02-21T18:50:50;99478.97;;;10.79;42.43
55317;BME280;41178;48.956;8.130;2023-02-21T18:55:52;99483.84;;;10.54;43.06
55317;BME280;41178;48.956;8.130;2023-02-21T19:00:54;99477.38;;;10.42;43.59
55317;BME280;41178;48.956;8.130;2023-02-21T19:05:56;99463.28;;;10.11;44.05
55317;BME280;41178;48.956;8.130;2023-02-21T19:10:57;99430.63;;;9.65;45.03
55317;BME280;41178;48.956;8.130;2023-02-21T19:15:59;99430.63;;;9.65;45.49
55317;BME280;41178;48.956;8.130;2023-02-21T19:21:01;99453.28;;;10.20;44.58
55317;BME280;41178;48.956;8.130;2023-02-21T19:26:03;99407.28;;;9.07;46.22
55317;BME280;41178;48.956;8.130;2023-02-21T19:31:06;99436.28;;;9.25;45.48
55317;BME280;41178;48.956;8.130;2023-02-21T19:36:09;99429.94;;;9.26;45.49
55317;BME280;41178;48.956;8.130;2023-02-21T19:41:11;99450.59;;;9.99;44.14
55317;BME280;41178;48.956;8.130;2023-02-21T19:46:24;99454.47;;;9.81;44.42
55317;BME280;41178;48.956;8.130;2023-02-21T19:51:29;99444.03;;;10.66;43.28
55317;BME280;41178;48.956;8.130;2023-02-21T19:56:31;99418.16;;;9.06;45.82
55317;BME280;41178;48.956;8.130;2023-02-21T20:01:33;99435.72;;;9.00;46.20
55317;BME280;41178;48.956;8.130;2023-02-21T20:06:35;99461.06;;;9.19;45.44
55317;BME280;41178;48.956;8.130;2023-02-21T20:11:38;99420.50;;;8.47;46.73
55317;BME280;41178;48.956;8.130;2023-02-21T20:16:42;99449.44;;;9.12;46.34
55317;BME280;41178;48.956;8.130;2023-02-21T20:21:44;99442.25;;;9.12;46.43
55317;BME280;41178;48.956;8.130;2023-02-21T20:26:50;99439.88;;;9.62;45.53
55317;BME280;41178;48.956;8.130;2023-02-21T20:31:52;99479.75;;;9.64;44.73
55317;BME280;41178;48.956;8.130;2023-02-21T20:36:55;99447.63;;;10.51;43.67
55317;BME280;41178;48.956;8.130;2023-02-21T20:42:00;99466.34;;;9.93;44.80
55317;BME280;41178;48.956;8.130;2023-02-21T20:47:04;99440.50;;;10.80;43.33
55317;BME280;41178;48.956;8.130;2023-02-21T20:52:06;99460.88;;;9.20;46.32
55317;BME280;41178;48.956;8.130;2023-02-21T20:57:08;99421.22;;;8.41;46.91
55317;BME280;41178;48.956;8.130;2023-02-21T21:02:10;99430.53;;;8.22;48.02
55317;BME280;41178;48.956;8.130;2023-02-21T21:07:14;99436.34;;;8.26;47.75
55317;BME280;41178;48.956;8.130;2023-02-21T21:12:21;99435.97;;;8.06;48.42
55317;BME280;41178;48.956;8.130;2023-02-21T21:17:23;99437.34;;;8.02;48.61
55317;BME280;41178;48.956;8.130;2023-02-21T21:22:26;99368.72;;;6.85;49.88
55317;BME280;41178;48.956;8.130;2023-02-21T21:27:29;99401.22;;;7.20;49.89
55317;BME280;41178;48.956;8.130;2023-02-21T21:32:30;99412.00;;;7.27;49.28
55317;BME280;41178;48.956;8.130;2023-02-21T21:37:33;99396.47;;;6.99;49.81
55317;BME280;41178;48.956;8.130;2023-02-21T21:42:35;99415.63;;;7.42;49.62
55317;BME280;41178;48.956;8.130;2023-02-21T21:47:37;99373.38;;;6.67;50.46
55317;BME280;41178;48.956;8.130;2023-02-21T21:52:39;99407.72;;;7.57;49.03
55317;BME280;41178;48.956;8.130;2023-02-21T21:57:40;99420.22;;;7.57;49.10
55317;BME280;41178;48.956;8.130;2023-02-21T22:02:42;99399.16;;;6.99;49.71
55317;BME280;41178;48.956;8.130;2023-02-21T22:07:47;99415.00;;;7.24;48.90
55317;BME280;41178;48.956;8.130;2023-02-21T22:12:50;99417.13;;;7.45;48.66
55317;BME280;41178;48.956;8.130;2023-02-21T22:17:53;99409.16;;;7.36;49.05
55317;BME280;41178;48.956;8.130;2023-02-21T22:22:56;99401.44;;;7.81;48.33
55317;BME280;41178;48.956;8.130;2023-02-21T22:28:03;99405.22;;;8.18;47.77
55317;BME280;41178;48.956;8.130;2023-02-21T22:33:07;99383.81;;;9.02;46.37
55317;BME280;41178;48.956;8.130;2023-02-21T22:38:09;99463.59;;;8.36;46.82
55317;BME280;41178;48.956;8.130;2023-02-21T22:43:16;99421.19;;;9.17;45.57
55317;BME280;41178;48.956;8.130;2023-02-21T22:48:20;99466.38;;;8.66;46.19
55317;BME280;41178;48.956;8.130;2023-02-21T22:53:22;99451.38;;;9.03;45.78
55317;BME280;41178;48.956;8.130;2023-02-21T22:58:23;99388.91;;;9.64;45.26
55317;BME280;41178;48.956;8.130;2023-02-21T23:03:25;99452.38;;;9.02;45.96
55317;BME280;41178;48.956;8.130;2023-02-21T23:08:29;99460.88;;;8.44;46.14
55317;BME280;41178;48.956;8.130;2023-02-21T23:13:31;99409.72;;;7.63;47.33
55317;BME280;41178;48.956;8.130;2023-02-21T23:18:33;99341.63;;;6.90;49.32
55317;BME280;41178;48.956;8.130;2023-02-21T23:23:34;99440.69;;;7.96;47.61
55317;BME280;41178;48.956;8.130;2023-02-21T23:28:37;99410.91;;;8.76;46.45
55317;BME280;41178;48.956;8.130;2023-02-21T23:33:39;99439.59;;;8.59;45.96
55317;BME280;41178;48.956;8.130;2023-02-21T23:38:40;99390.91;;;9.25;45.94
55317;BME280;41178;48.956;8.130;2023-02-21T23:43:43;99408.84;;;9.01;45.53
55317;BME280;41178;48.956;8.130;2023-02-21T23:48:48;99413.81;;;9.34;44.73
55317;BME280;41178;48.956;8.130;2023-02-21T23:53:53;99449.63;;;8.72;46.00
55317;BME280;41178;48.956;8.130;2023-02-21T23:58:54;99460.47;;;8.94;45.80
